createdAt,value
2017-12-17T00:00:06.427Z,17.53
2017-12-17T00:02:35.414Z,18.00
2017-12-17T00:05:04.396Z,17.13
2017-12-17T00:07:32.497Z,17.60
2017-12-17T00:10:00.627Z,17.20
2017-12-17T00:12:28.708Z,17.87
2017-12-17T00:14:59.124Z,17.20
2017-12-17T00:17:27.195Z,15.70
2017-12-17T00:19:55.359Z,16.30
2017-12-17T00:22:23.441Z,16.47
2017-12-17T00:24:51.599Z,14.80
2017-12-17T00:27:19.690Z,15.20
2017-12-17T00:29:47.875Z,14.00
2017-12-17T00:32:17.677Z,12.37
2017-12-17T00:34:45.768Z,12.30
2017-12-17T00:37:13.885Z,11.27
2017-12-17T00:39:42.736Z,13.30
2017-12-17T00:42:11.612Z,13.50
2017-12-17T00:44:39.696Z,15.10
2017-12-17T00:47:08.603Z,13.70
2017-12-17T00:49:37.484Z,13.40
2017-12-17T00:52:06.360Z,12.93
2017-12-17T00:54:34.479Z,13.10
2017-12-17T00:57:02.592Z,14.70
2017-12-17T00:59:30.724Z,11.13
2017-12-17T01:01:58.832Z,11.00
2017-12-17T01:04:26.946Z,11.70
2017-12-17T01:06:55.048Z,13.20
2017-12-17T01:09:25.283Z,13.27
2017-12-17T01:11:53.400Z,11.73
2017-12-17T01:14:21.545Z,13.10
2017-12-17T01:19:42.631Z,13.70
2017-12-17T01:22:10.758Z,14.07
2017-12-17T01:24:38.949Z,14.43
2017-12-17T01:27:07.126Z,15.30
2017-12-17T01:29:35.223Z,15.70
2017-12-17T01:32:03.356Z,17.57
2017-12-17T01:34:31.477Z,16.27
2017-12-17T01:36:59.562Z,16.40
2017-12-17T01:39:27.820Z,18.13
2017-12-17T01:41:55.953Z,15.33
2017-12-17T01:44:24.037Z,17.90
2017-12-17T01:46:52.272Z,21.57
2017-12-17T01:49:20.388Z,19.97
2017-12-17T01:51:48.469Z,22.10
2017-12-17T01:57:07.756Z,24.93
2017-12-17T01:59:35.929Z,22.90
2017-12-17T02:02:04.081Z,25.43
2017-12-17T02:04:32.175Z,24.00
2017-12-17T02:07:00.293Z,25.37
2017-12-17T02:09:31.156Z,26.67
2017-12-17T02:11:59.256Z,24.37
2017-12-17T02:14:27.395Z,28.43
2017-12-17T02:16:55.525Z,27.90
2017-12-17T02:19:23.652Z,26.30
2017-12-17T02:21:51.822Z,23.80
2017-12-17T02:24:20.157Z,25.37
2017-12-17T02:26:48.316Z,31.73
2017-12-17T02:29:16.416Z,24.73
2017-12-17T02:31:44.533Z,26.93
2017-12-17T02:34:14.563Z,27.20
2017-12-17T02:36:43.521Z,30.50
2017-12-17T02:39:11.724Z,28.40
2017-12-17T02:41:40.640Z,29.27
2017-12-17T02:44:08.742Z,27.00
2017-12-17T02:46:36.891Z,32.67
2017-12-17T02:49:05.009Z,28.40
2017-12-17T02:51:33.268Z,27.77
2017-12-17T02:54:01.398Z,27.30
2017-12-17T02:56:29.606Z,29.33
2017-12-17T02:58:57.695Z,28.03
2017-12-17T03:01:25.845Z,27.07
2017-12-17T03:03:53.973Z,27.67
2017-12-17T03:06:22.186Z,25.10
2017-12-17T03:08:50.539Z,30.77
2017-12-17T03:11:19.389Z,29.03
2017-12-17T03:13:47.545Z,28.30
2017-12-17T03:16:15.637Z,25.77
2017-12-17T03:18:43.773Z,30.43
2017-12-17T03:21:11.877Z,34.60
2017-12-17T03:26:24.351Z,32.67
2017-12-17T03:28:52.638Z,28.47
2017-12-17T03:31:20.761Z,31.07
2017-12-17T03:33:48.997Z,29.00
2017-12-17T03:36:17.076Z,33.80
2017-12-17T03:38:46.090Z,33.00
2017-12-17T03:41:14.319Z,28.90
2017-12-17T03:43:43.201Z,33.57
2017-12-17T03:46:11.315Z,30.50
2017-12-17T03:48:39.424Z,31.50
2017-12-17T03:51:07.503Z,30.20
2017-12-17T03:53:35.640Z,29.60
2017-12-17T03:56:03.808Z,29.90
2017-12-17T03:58:31.919Z,25.80
2017-12-17T04:01:00.103Z,28.90
2017-12-17T04:03:29.034Z,26.40
2017-12-17T04:05:57.202Z,29.60
2017-12-17T04:08:30.624Z,25.77
2017-12-17T04:10:58.830Z,25.23
2017-12-17T04:13:27.836Z,25.87
2017-12-17T04:15:55.917Z,25.63
2017-12-17T04:18:24.033Z,25.07
2017-12-17T04:20:52.112Z,22.40
2017-12-17T04:23:20.255Z,24.33
2017-12-17T04:25:48.440Z,24.23
2017-12-17T04:28:16.535Z,22.13
2017-12-17T04:30:44.614Z,23.13
2017-12-17T04:33:14.585Z,20.13
2017-12-17T04:35:42.679Z,20.87
2017-12-17T04:38:10.783Z,19.37
2017-12-17T04:40:39.335Z,20.13
2017-12-17T04:43:07.419Z,20.67
2017-12-17T04:45:35.587Z,20.50
2017-12-17T04:48:03.676Z,21.83
2017-12-17T04:50:31.871Z,21.57
2017-12-17T04:52:59.976Z,23.50
2017-12-17T04:55:28.100Z,22.23
2017-12-17T04:57:56.354Z,23.80
2017-12-17T05:00:24.564Z,24.10
2017-12-17T05:02:52.650Z,25.47
2017-12-17T05:05:20.767Z,24.37
2017-12-17T05:07:48.924Z,27.00
2017-12-17T05:10:17.227Z,33.40
2017-12-17T05:12:45.316Z,30.73
2017-12-17T05:15:14.836Z,40.67
2017-12-17T05:17:43.026Z,25.77
2017-12-17T05:20:11.921Z,29.07
2017-12-17T05:22:40.807Z,29.63
2017-12-17T05:25:11.000Z,27.87
2017-12-17T05:27:39.198Z,30.50
2017-12-17T05:30:08.084Z,31.50
2017-12-17T05:32:36.961Z,30.83
2017-12-17T05:35:05.079Z,28.20
2017-12-17T05:37:33.169Z,27.20
2017-12-17T05:40:01.258Z,28.63
2017-12-17T05:42:29.486Z,29.87
2017-12-17T05:44:57.672Z,29.10
2017-12-17T05:47:25.805Z,28.50
2017-12-17T05:49:55.159Z,29.00
2017-12-17T05:52:23.307Z,27.53
2017-12-17T05:54:52.299Z,28.03
2017-12-17T06:00:11.573Z,28.10
2017-12-17T06:02:40.944Z,30.17
2017-12-17T06:05:09.051Z,28.20
2017-12-17T06:07:37.991Z,29.97
2017-12-17T06:10:06.086Z,28.27
2017-12-17T06:12:34.236Z,28.67
2017-12-17T06:15:02.319Z,26.73
2017-12-17T06:17:30.716Z,27.73
2017-12-17T06:19:59.025Z,28.70
2017-12-17T06:22:27.188Z,27.77
2017-12-17T06:24:56.044Z,29.77
2017-12-17T06:27:24.350Z,28.90
2017-12-17T06:29:52.544Z,28.50
2017-12-17T06:32:21.529Z,28.10
2017-12-17T06:34:50.392Z,29.60
2017-12-17T06:37:19.040Z,29.90
2017-12-17T06:39:49.676Z,28.47
2017-12-17T06:42:18.480Z,27.73
2017-12-17T06:44:48.720Z,30.00
2017-12-17T06:47:16.885Z,39.30
2017-12-17T06:49:44.969Z,32.00
2017-12-17T06:52:13.129Z,48.57
2017-12-17T06:54:41.239Z,31.73
2017-12-17T06:57:09.323Z,30.80
2017-12-17T06:59:37.550Z,48.77
2017-12-17T07:02:05.683Z,44.37
2017-12-17T07:04:33.838Z,41.43
2017-12-17T07:07:02.708Z,52.57
2017-12-17T07:09:30.833Z,60.33
2017-12-17T07:11:59.111Z,43.87
2017-12-17T07:14:30.527Z,44.70
2017-12-17T07:17:00.450Z,33.90
2017-12-17T07:19:28.616Z,33.90
2017-12-17T07:21:56.771Z,33.87
2017-12-17T07:24:24.983Z,33.27
2017-12-17T07:26:53.127Z,31.97
2017-12-17T07:29:21.305Z,32.70
2017-12-17T07:31:49.444Z,31.07
2017-12-17T07:34:17.656Z,32.00
2017-12-17T07:36:45.826Z,33.07
2017-12-17T07:39:14.948Z,37.40
2017-12-17T07:41:43.119Z,32.23
2017-12-17T07:44:12.220Z,32.63
2017-12-17T07:46:40.365Z,33.37
2017-12-17T07:49:09.210Z,33.40
2017-12-17T07:51:37.334Z,33.63
2017-12-17T07:54:06.362Z,31.10
2017-12-17T07:56:34.900Z,32.63
2017-12-17T07:59:03.128Z,34.43
2017-12-17T08:01:31.348Z,37.77
2017-12-17T08:04:00.343Z,34.17
2017-12-17T08:06:29.242Z,33.70
2017-12-17T08:08:58.121Z,36.67
2017-12-17T08:11:27.144Z,35.20
2017-12-17T08:13:55.286Z,35.90
2017-12-17T08:16:24.139Z,35.03
2017-12-17T08:18:52.349Z,33.83
2017-12-17T08:21:20.434Z,35.30
2017-12-17T08:23:49.331Z,36.97
2017-12-17T08:26:18.219Z,38.37
2017-12-17T08:28:47.098Z,38.23
2017-12-17T08:31:15.940Z,36.07
2017-12-17T08:33:44.540Z,36.63
2017-12-17T08:36:12.679Z,36.00
2017-12-17T08:38:40.771Z,36.63
2017-12-17T08:41:08.896Z,37.47
2017-12-17T08:43:37.012Z,38.23
2017-12-17T08:46:05.107Z,37.17
2017-12-17T08:48:33.222Z,38.00
2017-12-17T08:51:02.106Z,37.83
2017-12-17T08:53:30.228Z,36.60
2017-12-17T08:55:58.326Z,37.43
2017-12-17T08:58:26.491Z,39.40
2017-12-17T09:00:54.617Z,39.90
2017-12-17T09:03:25.372Z,41.20
2017-12-17T09:05:53.444Z,39.23
2017-12-17T09:08:22.343Z,42.63
2017-12-17T09:10:50.457Z,41.00
2017-12-17T09:13:18.535Z,39.00
2017-12-17T09:15:47.517Z,41.40
2017-12-17T09:18:15.708Z,41.53
2017-12-17T09:20:43.909Z,41.30
2017-12-17T09:23:16.897Z,38.57
2017-12-17T09:25:45.072Z,39.60
2017-12-17T09:28:13.196Z,36.93
2017-12-17T09:30:41.820Z,36.10
2017-12-17T09:33:10.772Z,38.33
2017-12-17T09:35:38.848Z,38.37
2017-12-17T09:38:06.984Z,37.70
2017-12-17T09:40:38.339Z,38.70
2017-12-17T09:43:07.099Z,38.33
2017-12-17T09:45:35.201Z,41.27
2017-12-17T09:48:03.341Z,38.80
2017-12-17T09:50:32.252Z,39.60
2017-12-17T09:53:00.600Z,36.20
2017-12-17T09:55:30.617Z,34.70
2017-12-17T09:57:59.061Z,35.80
2017-12-17T10:00:27.173Z,33.30
2017-12-17T10:02:55.304Z,37.13
2017-12-17T10:05:23.414Z,39.07
2017-12-17T10:07:52.335Z,33.17
2017-12-17T10:10:20.471Z,37.90
2017-12-17T10:12:49.372Z,36.23
2017-12-17T10:15:18.234Z,36.87
2017-12-17T10:17:47.013Z,36.07
2017-12-17T10:20:15.211Z,37.87
2017-12-17T10:22:43.286Z,34.07
2017-12-17T10:25:12.140Z,35.90
2017-12-17T10:27:40.351Z,34.87
2017-12-17T10:30:09.244Z,33.43
2017-12-17T10:32:37.522Z,35.30
2017-12-17T10:35:06.385Z,34.37
2017-12-17T10:37:34.610Z,34.00
2017-12-17T10:40:02.691Z,33.30
2017-12-17T10:42:30.823Z,35.70
2017-12-17T10:44:58.963Z,34.70
2017-12-17T10:47:27.056Z,35.63
2017-12-17T10:49:55.147Z,34.73
2017-12-17T10:52:23.321Z,33.30
2017-12-17T10:54:51.399Z,33.10
2017-12-17T10:57:19.712Z,46.30
2017-12-17T10:59:47.789Z,34.37
2017-12-17T11:02:16.344Z,36.43
2017-12-17T11:04:46.868Z,37.47
2017-12-17T11:07:17.267Z,44.67
2017-12-17T11:12:28.275Z,36.20
2017-12-17T11:14:56.439Z,37.83
2017-12-17T11:17:24.529Z,36.27
2017-12-17T11:19:53.796Z,35.07
2017-12-17T11:22:21.882Z,35.90
2017-12-17T11:24:49.986Z,35.33
2017-12-17T11:27:18.116Z,37.63
2017-12-17T11:29:46.280Z,35.20
2017-12-17T11:32:14.431Z,32.53
2017-12-17T11:34:42.674Z,33.20
2017-12-17T11:37:10.801Z,33.50
2017-12-17T11:39:39.000Z,34.40
2017-12-17T11:42:08.030Z,34.13
2017-12-17T11:44:36.165Z,33.57
2017-12-17T11:47:04.259Z,34.47
2017-12-17T11:49:33.261Z,35.20
2017-12-17T11:52:01.390Z,32.70
2017-12-17T11:54:29.827Z,35.30
2017-12-17T11:56:58.038Z,43.90
2017-12-17T11:59:26.104Z,34.00
2017-12-17T12:01:54.275Z,31.80
2017-12-17T12:04:22.368Z,30.27
2017-12-17T12:06:50.504Z,30.17
2017-12-17T12:09:18.633Z,29.57
2017-12-17T12:11:47.609Z,31.03
2017-12-17T12:14:15.776Z,28.00
2017-12-17T12:16:44.076Z,31.03
2017-12-17T12:19:12.963Z,29.63
2017-12-17T12:21:42.118Z,28.10
2017-12-17T12:24:10.864Z,28.87
2017-12-17T12:26:38.936Z,27.23
2017-12-17T12:29:07.153Z,23.87
2017-12-17T12:31:35.239Z,28.10
2017-12-17T12:34:03.329Z,27.10
2017-12-17T12:36:31.525Z,29.20
2017-12-17T12:39:00.395Z,29.03
2017-12-17T12:41:29.263Z,30.20
2017-12-17T12:43:57.343Z,28.30
2017-12-17T12:46:26.508Z,29.87
2017-12-17T12:48:54.780Z,27.97
2017-12-17T12:51:22.880Z,27.73
2017-12-17T12:53:50.996Z,26.27
2017-12-17T12:56:19.902Z,23.60
2017-12-17T12:58:48.020Z,25.93
2017-12-17T13:01:16.104Z,30.37
2017-12-17T13:03:44.308Z,25.43
2017-12-17T13:06:12.391Z,29.80
2017-12-17T13:08:41.577Z,23.93
2017-12-17T13:11:10.476Z,23.47
2017-12-17T13:13:39.383Z,23.30
2017-12-17T13:16:07.478Z,22.43
2017-12-17T13:18:35.653Z,25.13
2017-12-17T13:21:03.745Z,23.83
2017-12-17T13:23:31.887Z,23.17
2017-12-17T13:26:00.014Z,21.53
2017-12-17T13:28:28.998Z,27.03
2017-12-17T13:30:57.079Z,21.70
2017-12-17T13:33:25.169Z,23.30
2017-12-17T13:35:54.140Z,23.70
2017-12-17T13:38:22.228Z,24.67
2017-12-17T13:40:51.134Z,22.67
2017-12-17T13:43:20.523Z,23.63
2017-12-17T13:45:49.340Z,23.50
2017-12-17T13:48:17.587Z,24.53
2017-12-17T13:50:47.447Z,23.87
2017-12-17T13:53:15.536Z,24.87
2017-12-17T13:55:43.736Z,25.30
2017-12-17T13:58:11.845Z,27.33
2017-12-17T14:00:39.992Z,26.73
2017-12-17T14:03:08.841Z,26.30
2017-12-17T14:05:37.148Z,26.37
2017-12-17T14:08:05.231Z,27.40
2017-12-17T14:10:33.486Z,29.40
2017-12-17T14:13:01.924Z,29.53
2017-12-17T14:15:30.007Z,28.33
2017-12-17T14:17:58.139Z,29.60
2017-12-17T14:20:27.198Z,31.10
2017-12-17T14:22:55.423Z,30.30
2017-12-17T14:25:23.533Z,29.43
2017-12-17T14:27:51.652Z,27.40
2017-12-17T14:30:20.536Z,30.30
2017-12-17T14:32:48.644Z,28.27
2017-12-17T14:35:16.805Z,26.13
2017-12-17T14:37:44.945Z,26.10
2017-12-17T14:40:13.083Z,28.53
2017-12-17T14:42:41.204Z,28.60
2017-12-17T14:45:09.300Z,26.40
2017-12-17T14:47:37.516Z,26.13
2017-12-17T14:50:06.582Z,27.00
2017-12-17T14:52:35.141Z,27.33
2017-12-17T14:55:03.657Z,28.90
2017-12-17T14:57:32.788Z,29.53
2017-12-17T15:00:00.886Z,33.73
2017-12-17T15:02:29.867Z,30.53
2017-12-17T15:04:59.113Z,32.43
2017-12-17T15:07:27.351Z,30.20
2017-12-17T15:09:56.225Z,27.73
2017-12-17T15:12:24.960Z,29.50
2017-12-17T15:14:53.296Z,27.33
2017-12-17T15:17:21.384Z,28.03
2017-12-17T15:19:49.491Z,26.60
2017-12-17T15:22:17.636Z,25.27
2017-12-17T15:24:46.515Z,26.50
2017-12-17T15:27:14.649Z,26.50
2017-12-17T15:29:42.760Z,26.53
2017-12-17T15:32:12.640Z,26.50
2017-12-17T15:34:40.891Z,28.00
2017-12-17T15:37:19.110Z,28.53
2017-12-17T15:42:23.598Z,30.60
2017-12-17T15:44:52.526Z,28.80
2017-12-17T15:47:20.639Z,29.73
2017-12-17T15:49:48.745Z,30.27
2017-12-17T15:52:18.523Z,28.80
2017-12-17T15:54:46.609Z,30.70
2017-12-17T15:57:15.714Z,29.40
2017-12-17T15:59:43.805Z,29.77
2017-12-17T16:02:12.926Z,30.47
2017-12-17T16:04:41.028Z,31.30
2017-12-17T16:10:01.620Z,39.10
2017-12-17T16:17:46.224Z,30.20
2017-12-17T16:20:14.361Z,30.87
2017-12-17T16:22:43.366Z,33.93
2017-12-17T16:25:13.120Z,32.53
2017-12-17T16:27:41.302Z,32.70
2017-12-17T16:30:09.475Z,31.80
2017-12-17T16:32:37.668Z,31.37
2017-12-17T16:35:06.580Z,29.70
2017-12-17T16:37:34.712Z,32.83
2017-12-17T16:40:02.912Z,31.00
2017-12-17T16:42:31.896Z,29.53
2017-12-17T16:45:00.063Z,29.80
2017-12-17T16:47:28.224Z,30.10
2017-12-17T16:49:56.352Z,28.20
2017-12-17T16:52:24.487Z,28.17
2017-12-17T16:54:53.460Z,28.23
2017-12-17T16:57:21.639Z,27.77
2017-12-17T16:59:49.789Z,26.07
2017-12-17T17:02:17.906Z,26.57
2017-12-17T17:04:46.841Z,27.93
2017-12-17T17:07:14.934Z,29.23
2017-12-17T17:09:44.014Z,30.00
2017-12-17T17:12:12.105Z,27.30
2017-12-17T17:14:40.252Z,25.90
2017-12-17T17:17:08.357Z,26.30
2017-12-17T17:19:36.422Z,25.20
2017-12-17T17:22:04.674Z,26.80
2017-12-17T17:24:32.840Z,25.00
2017-12-17T17:27:00.949Z,26.47
2017-12-17T17:29:29.104Z,26.13
2017-12-17T17:31:57.215Z,26.70
2017-12-17T17:34:25.396Z,24.33
2017-12-17T17:36:54.305Z,23.43
2017-12-17T17:39:22.384Z,26.80
2017-12-17T17:41:50.747Z,25.03
2017-12-17T17:44:19.683Z,26.07
2017-12-17T17:46:47.799Z,25.90
2017-12-17T17:49:16.676Z,25.80
2017-12-17T17:51:44.808Z,25.70
2017-12-17T17:54:12.988Z,23.77
2017-12-17T17:56:41.144Z,24.17
2017-12-17T17:59:09.256Z,27.30
2017-12-17T18:01:37.445Z,27.23
2017-12-17T18:04:05.634Z,26.20
2017-12-17T18:06:33.768Z,24.57
2017-12-17T18:09:01.919Z,24.60
2017-12-17T18:11:30.099Z,27.40
2017-12-17T18:13:58.320Z,28.30
2017-12-17T18:16:26.460Z,29.47
2017-12-17T18:18:54.580Z,25.57
2017-12-17T18:21:23.442Z,27.47
2017-12-17T18:23:51.553Z,26.60
2017-12-17T18:26:20.495Z,28.87
2017-12-17T18:28:48.624Z,28.50
2017-12-17T18:31:16.761Z,27.80
2017-12-17T18:33:44.943Z,26.87
2017-12-17T18:36:13.025Z,28.50
2017-12-17T18:38:41.924Z,26.50
2017-12-17T18:41:10.140Z,28.47
2017-12-17T18:43:38.215Z,28.57
2017-12-17T18:46:06.392Z,25.97
2017-12-17T18:48:34.481Z,27.03
2017-12-17T18:51:02.640Z,28.03
2017-12-17T18:53:30.815Z,30.77
2017-12-17T18:55:58.967Z,40.53
2017-12-17T18:58:27.052Z,30.20
2017-12-17T19:00:55.273Z,29.37
2017-12-17T19:03:24.161Z,25.63
2017-12-17T19:05:52.449Z,25.87
2017-12-17T19:08:21.378Z,25.70
2017-12-17T19:10:50.179Z,26.07
2017-12-17T19:13:18.332Z,26.57
2017-12-17T19:15:46.627Z,26.83
2017-12-17T19:18:14.711Z,25.53
2017-12-17T19:20:42.869Z,23.93
2017-12-17T19:23:11.095Z,25.50
2017-12-17T19:25:39.183Z,24.10
2017-12-17T19:28:09.080Z,23.83
2017-12-17T19:30:37.255Z,23.30
2017-12-17T19:33:05.427Z,23.40
2017-12-17T19:35:33.568Z,24.10
2017-12-17T19:38:01.930Z,24.43
2017-12-17T19:40:30.028Z,28.33
2017-12-17T19:42:58.154Z,24.27
2017-12-17T19:45:26.246Z,24.57
2017-12-17T19:47:55.663Z,25.03
2017-12-17T19:50:23.746Z,24.40
2017-12-17T19:52:51.902Z,26.90
2017-12-17T19:55:20.028Z,25.57
2017-12-17T19:57:48.958Z,23.13
2017-12-17T20:00:17.064Z,22.60
2017-12-17T20:02:45.210Z,41.00
2017-12-17T20:05:13.358Z,28.53
2017-12-17T20:07:41.498Z,37.93
2017-12-17T20:10:09.632Z,23.60
2017-12-17T20:12:37.756Z,22.40
2017-12-17T20:15:05.898Z,22.93
2017-12-17T20:17:34.047Z,21.07
2017-12-17T20:20:02.145Z,21.37
2017-12-17T20:22:30.342Z,25.07
2017-12-17T20:24:58.512Z,22.17
2017-12-17T20:27:27.523Z,20.97
2017-12-17T20:29:56.891Z,21.70
2017-12-17T20:32:25.040Z,20.10
2017-12-17T20:34:53.149Z,20.57
2017-12-17T20:37:21.292Z,18.87
2017-12-17T20:39:49.418Z,22.13
2017-12-17T20:42:18.307Z,21.30
2017-12-17T20:44:46.424Z,19.37
2017-12-17T20:47:14.552Z,18.13
2017-12-17T20:49:43.452Z,19.27
2017-12-17T20:52:12.541Z,18.73
2017-12-17T20:54:40.778Z,20.40
2017-12-17T20:57:09.018Z,22.27
2017-12-17T20:59:37.157Z,17.70
2017-12-17T21:02:06.013Z,15.63
2017-12-17T21:04:34.159Z,15.40
2017-12-17T21:07:02.262Z,16.37
2017-12-17T21:09:31.288Z,15.60
2017-12-17T21:12:00.301Z,15.03
2017-12-17T21:14:28.420Z,15.27
2017-12-17T21:16:56.673Z,14.20
2017-12-17T21:19:24.777Z,15.30
2017-12-17T21:21:52.985Z,14.73
2017-12-17T21:24:22.475Z,14.43
2017-12-17T21:26:50.766Z,15.60
2017-12-17T21:29:18.842Z,14.07
2017-12-17T21:31:47.781Z,15.13
2017-12-17T21:34:15.936Z,13.70
2017-12-17T21:36:44.031Z,14.33
2017-12-17T21:39:12.158Z,13.03
2017-12-17T21:41:41.030Z,13.27
2017-12-17T21:44:10.616Z,13.40
2017-12-17T21:46:38.815Z,13.73
2017-12-17T21:49:06.978Z,12.53
2017-12-17T21:51:35.051Z,12.40
2017-12-17T21:54:03.151Z,12.80
2017-12-17T21:56:32.047Z,13.40
2017-12-17T21:59:00.134Z,11.53
2017-12-17T22:01:28.215Z,11.87
2017-12-17T22:03:57.480Z,11.37
2017-12-17T22:06:26.337Z,11.53
2017-12-17T22:08:54.520Z,11.37
2017-12-17T22:11:22.600Z,11.40
2017-12-17T22:13:50.783Z,11.90
2017-12-17T22:16:19.627Z,11.30
2017-12-17T22:18:47.765Z,10.50
2017-12-17T22:21:15.877Z,10.00
2017-12-17T22:23:43.974Z,9.83
2017-12-17T22:26:12.095Z,10.80
2017-12-17T22:28:40.232Z,10.67
2017-12-17T22:31:08.396Z,10.70
2017-12-17T22:33:36.514Z,9.77
2017-12-17T22:36:04.716Z,10.07
2017-12-17T22:38:32.822Z,9.47
2017-12-17T22:41:01.766Z,9.57
2017-12-17T22:43:29.857Z,9.83
2017-12-17T22:45:57.979Z,10.10
2017-12-17T22:48:26.955Z,10.30
2017-12-17T22:50:55.808Z,8.70
2017-12-17T22:53:23.887Z,9.20
2017-12-17T22:55:52.172Z,8.70
2017-12-17T22:58:20.339Z,8.47
2017-12-17T23:00:48.477Z,9.20
2017-12-17T23:03:16.628Z,8.10
2017-12-17T23:05:45.621Z,8.10
2017-12-17T23:08:13.695Z,7.50
2017-12-17T23:10:41.850Z,7.40
2017-12-17T23:13:10.026Z,7.13
2017-12-17T23:15:38.136Z,7.60
2017-12-17T23:18:06.247Z,7.07
2017-12-17T23:20:34.391Z,7.03
2017-12-17T23:23:02.504Z,7.77
2017-12-17T23:25:30.568Z,8.83
2017-12-17T23:27:58.710Z,8.10
2017-12-17T23:30:26.853Z,8.80
2017-12-17T23:32:55.770Z,8.93
2017-12-17T23:35:23.950Z,8.13
2017-12-17T23:37:52.075Z,9.57
2017-12-17T23:40:20.239Z,9.07
2017-12-17T23:42:48.320Z,8.90
2017-12-17T23:45:17.250Z,8.90
2017-12-17T23:47:45.371Z,8.07
2017-12-17T23:50:13.760Z,8.70
2017-12-17T23:52:41.865Z,9.40
2017-12-17T23:55:10.094Z,9.30
2017-12-17T23:57:38.279Z,10.27
